Terminal Aerodrome Forecast
Issued by NWS

Home | Current Version | Previous Version | Text Only | Print | Product List | Glossary On
Versions: 1 2 3 4 5 6 7 8 9 10 11 12 13 14 15 16 17
000
FTUS43 KDMX 210520
TAFMCW
TAF
KMCW 210520Z 2106/2206 07007KT P6SM OVC013
     FM210900 09006KT 5SM BR VCSH OVC007
     FM211500 09005KT P6SM VCSH OVC007
     FM220000 05004KT P6SM BKN014
     FM220100 06004KT P6SM BKN011=

USA.gov is the U.S. government's official web portal to all federal, state and local government web resources and services.